Wetterverlauf

Letzte Wetterlage 17.09.2014 13:12
Wetterdiagramm
Tabellarische Darstellung
Datum Temperatur Windchill Feuchte Luftdruck Windrichtung Windstärke Niederschlag
17.09.2014 13:12 23,3 °C 23,3 °C 67 % 1011,7 hPa 71 1.8 0,00 mm
17.09.2014 12:52 22,8 °C 21,8 °C 70 % 1011,8 hPa 98 2.7 0,00 mm
17.09.2014 12:32 22,8 °C 20,4 °C 70 % 1011,9 hPa 85 4.5 0,00 mm
17.09.2014 12:12 22,3 °C 22,3 °C 71 % 1012,1 hPa 80 1.8 0,00 mm
17.09.2014 11:52 21,9 °C 21,9 °C 77 % 1012,3 hPa 61 1.3 0,00 mm
17.09.2014 11:32 21,5 °C 21,5 °C 75 % 1012,4 hPa 74 0.4 0,00 mm
17.09.2014 11:12 20,9 °C 20,9 °C 79 % 1012,4 hPa 76 1.8 0,00 mm
17.09.2014 10:52 19,8 °C 19,8 °C 84 % 1012,6 hPa 49 0.0 0,00 mm
17.09.2014 10:32 19,0 °C 19,0 °C 87 % 1012,5 hPa 61 0.0 0,00 mm
17.09.2014 10:12 18,7 °C 18,7 °C 86 % 1012,5 hPa 76 0.0 0,00 mm
17.09.2014 09:52 17,9 °C 17,9 °C 90 % 1012,6 hPa 77 0.0 0,00 mm
17.09.2014 09:32 17,1 °C 17,1 °C 92 % 1012,6 hPa 78 0.0 0,00 mm
17.09.2014 09:12 15,5 °C 15,5 °C 95 % 1012,6 hPa 81 0.0 0,00 mm
17.09.2014 08:52 14,7 °C 14,7 °C 96 % 1012,6 hPa 79 0.0 0,00 mm
17.09.2014 08:32 13,2 °C 13,2 °C 98 % 1012,6 hPa 140 0.0 0,00 mm
17.09.2014 08:12 11,6 °C 11,6 °C 100 % 1012,5 hPa 140 0.0 0,00 mm
17.09.2014 07:52 10,4 °C 10,4 °C 99 % 1012,5 hPa 140 0.0 0,00 mm
17.09.2014 07:32 10,1 °C 10,1 °C 98 % 1012,6 hPa 140 0.0 0,00 mm
17.09.2014 07:12 10,1 °C 10,1 °C 98 % 1012,7 hPa 140 0.0 0,00 mm
17.09.2014 06:52 10,2 °C 10,2 °C 98 % 1012,7 hPa 140 0.0 0,00 mm
17.09.2014 06:32 10,3 °C 10,3 °C 98 % 1012,8 hPa 140 0.0 0,00 mm
17.09.2014 06:12 10,4 °C 10,4 °C 98 % 1012,7 hPa 140 0.0 0,00 mm
17.09.2014 05:52 10,6 °C 10,6 °C 98 % 1012,8 hPa 140 0.0 0,00 mm
17.09.2014 05:32 10,8 °C 10,8 °C 98 % 1012,9 hPa 140 0.0 0,00 mm
17.09.2014 05:12 10,8 °C 10,8 °C 97 % 1013,0 hPa 140 0.0 0,00 mm
Empfehlen Sie wetter.com
| Mehr
Neue Wetterwarnung

Neue Niederschlagsmeldung
Neue Meldung
Regen Liveticker
    sehr starker Regen/Gewitter
    starker Regen/Gewitter
    mäßiger bis starker Regen
    mäßiger Regen
    leichter bis mäßiger Regen
    kein Regen